Time;durP1;ratioP1;P1;durP2;ratioP2;P2;SDS_P1;SDS_P2;PMS_P1;PMS_P2;Temp;Humidity;BMP_temperature;BMP_pressure;BME280_temperature;BME280_humidity;BME280_pressure;Samples;Min_cycle;Max_cycle;Signal;HPM_P1;HPM_P2
2023/08/12 00:00:49;;;;;;;9.20;8.40;;;;;;;;;;10194199;28;20117;-72
2023/08/12 00:05:46;;;;;;;9.20;8.40;;;;;;;;;;10176564;28;20100;-73
2023/08/12 00:10:43;;;;;;;9.68;8.77;;;;;;;;;;10178580;28;20193;-73
2023/08/12 00:15:40;;;;;;;9.40;8.40;;;;;;;;;;10175325;28;20467;-69
2023/08/12 00:20:37;;;;;;;8.73;8.02;;;;;;;;;;10159269;28;20413;-72
2023/08/12 00:25:34;;;;;;;9.23;8.30;;;;;;;;;;10172322;28;20488;-72
2023/08/12 00:30:30;;;;;;;8.80;8.13;;;;;;;;;;10274456;23;20057;-72
2023/08/12 00:35:27;;;;;;;8.43;7.82;;;;;;;;;;10206144;28;20046;-72
2023/08/12 00:40:24;;;;;;;7.95;7.35;;;;;;;;;;10193726;28;20077;-72
2023/08/12 00:45:20;;;;;;;8.73;8.02;;;;;;;;;;10197719;28;20420;-73
2023/08/12 00:50:16;;;;;;;9.32;8.45;;;;;;;;;;10196514;28;20050;-72
2023/08/12 00:55:13;;;;;;;8.75;7.80;;;;;;;;;;10203472;28;20393;-72
2023/08/12 01:00:09;;;;;;;10.93;8.07;;;;;;;;;;10256487;23;20126;-73
2023/08/12 01:05:06;;;;;;;9.73;7.22;;;;;;;;;;10231233;28;20120;-72
2023/08/12 01:10:02;;;;;;;8.27;7.45;;;;;;;;;;10238994;28;20045;-73
2023/08/12 01:15:04;;;;;;;9.43;7.70;;;;;;;;;;10238925;28;20451;-72
2023/08/12 01:20:02;;;;;;;8.15;7.30;;;;;;;;;;10429770;23;20522;-73
2023/08/12 01:24:59;;;;;;;8.43;7.47;;;;;;;;;;10219197;28;20216;-72
2023/08/12 01:29:55;;;;;;;9.10;7.57;;;;;;;;;;10201922;28;20412;-72
2023/08/12 01:34:57;;;;;;;8.40;6.80;;;;;;;;;;10206024;28;20471;-72
2023/08/12 01:39:55;;;;;;;8.00;7.30;;;;;;;;;;10369101;23;20073;-72
2023/08/12 01:44:51;;;;;;;8.30;7.60;;;;;;;;;;10232794;28;20404;-72
2023/08/12 01:50:15;;;;;;;8.30;7.50;;;;;;;;;;10325689;23;20085;-73
2023/08/12 01:56:05;;;;;;;7.93;7.18;;;;;;;;;;10053716;28;20074;-72
2023/08/12 02:01:18;;;;;;;8.18;7.35;;;;;;;;;;10252826;23;20101;-72
2023/08/12 02:06:14;;;;;;;8.80;7.25;;;;;;;;;;10215966;28;20137;-72
2023/08/12 02:11:10;;;;;;;8.50;7.20;;;;;;;;;;10197941;28;20046;-72
2023/08/12 02:16:07;;;;;;;8.88;7.50;;;;;;;;;;10222484;28;20462;-73
2023/08/12 02:21:03;;;;;;;8.55;7.72;;;;;;;;;;10205211;28;20049;-72
2023/08/12 02:26:00;;;;;;;8.45;6.93;;;;;;;;;;10216189;28;20049;-72
2023/08/12 02:30:56;;;;;;;8.80;7.80;;;;;;;;;;10196907;28;20431;-72
2023/08/12 02:35:54;;;;;;;8.30;7.55;;;;;;;;;;10214152;28;20139;-72
2023/08/12 02:40:50;;;;;;;9.15;8.25;;;;;;;;;;10196756;28;20443;-72
2023/08/12 02:45:47;;;;;;;8.07;7.45;;;;;;;;;;10219406;28;20760;-72
2023/08/12 02:50:43;;;;;;;9.10;7.88;;;;;;;;;;10236404;28;20045;-72
2023/08/12 02:55:39;;;;;;;8.48;7.70;;;;;;;;;;10223719;28;20046;-72
2023/08/12 03:00:36;;;;;;;8.57;7.85;;;;;;;;;;10260003;23;20046;-72
2023/08/12 03:05:32;;;;;;;8.65;7.82;;;;;;;;;;10221811;28;20064;-72
2023/08/12 03:10:28;;;;;;;8.32;7.63;;;;;;;;;;10294778;23;20042;-72
2023/08/12 03:15:25;;;;;;;8.93;8.23;;;;;;;;;;10227065;28;20053;-72
2023/08/12 03:20:21;;;;;;;9.75;8.85;;;;;;;;;;10222966;28;20046;-72
2023/08/12 03:25:17;;;;;;;9.77;8.98;;;;;;;;;;10228732;28;20404;-72
2023/08/12 03:30:14;;;;;;;9.45;8.50;;;;;;;;;;10198330;28;20456;-73
2023/08/12 03:35:10;;;;;;;9.68;8.98;;;;;;;;;;10211587;28;20523;-72
2023/08/12 03:40:07;;;;;;;9.60;8.80;;;;;;;;;;10214892;28;20054;-72
2023/08/12 03:45:04;;;;;;;9.45;8.60;;;;;;;;;;10210687;28;20056;-72
2023/08/12 03:50:01;;;;;;;9.30;8.60;;;;;;;;;;10203018;28;20050;-72
2023/08/12 03:54:57;;;;;;;10.18;9.18;;;;;;;;;;10209672;28;20046;-72
2023/08/12 03:59:53;;;;;;;9.23;8.50;;;;;;;;;;10311964;23;21438;-72
2023/08/12 04:04:50;;;;;;;10.55;9.70;;;;;;;;;;10213890;28;20061;-72
2023/08/12 04:09:46;;;;;;;12.43;9.45;;;;;;;;;;10193597;28;20050;-72
2023/08/12 04:14:42;;;;;;;10.27;9.32;;;;;;;;;;10207348;28;20064;-73
2023/08/12 04:19:39;;;;;;;10.50;9.40;;;;;;;;;;10232252;28;20061;-73
2023/08/12 04:24:36;;;;;;;10.20;8.90;;;;;;;;;;10210045;28;20111;-72
2023/08/12 04:29:32;;;;;;;9.80;9.00;;;;;;;;;;10231749;28;20062;-73
2023/08/12 04:34:28;;;;;;;10.07;9.38;;;;;;;;;;10213266;28;20045;-73
2023/08/12 04:39:25;;;;;;;10.32;9.38;;;;;;;;;;10225715;28;20045;-73
2023/08/12 04:44:21;;;;;;;11.20;10.10;;;;;;;;;;10212094;28;20520;-72
2023/08/12 04:49:18;;;;;;;9.77;8.88;;;;;;;;;;10209331;28;20069;-73
2023/08/12 04:54:14;;;;;;;10.23;9.43;;;;;;;;;;10204963;28;20062;-73
2023/08/12 04:59:10;;;;;;;10.18;9.48;;;;;;;;;;10200508;28;20050;-72
2023/08/12 05:04:07;;;;;;;10.63;9.55;;;;;;;;;;10209249;28;20053;-73
2023/08/12 05:09:03;;;;;;;10.77;9.95;;;;;;;;;;10240165;28;20048;-73
2023/08/12 05:14:00;;;;;;;10.50;9.55;;;;;;;;;;10214987;28;20045;-72
2023/08/12 05:18:56;;;;;;;11.32;10.32;;;;;;;;;;10240055;28;20050;-73
2023/08/12 05:23:52;;;;;;;10.80;9.90;;;;;;;;;;10206699;28;20056;-73
2023/08/12 05:28:49;;;;;;;10.55;9.80;;;;;;;;;;10238120;28;20053;-71
2023/08/12 05:33:45;;;;;;;10.90;10.00;;;;;;;;;;10203889;28;20052;-71
2023/08/12 05:38:41;;;;;;;11.10;10.13;;;;;;;;;;10223376;28;20523;-71
2023/08/12 05:43:37;;;;;;;11.13;10.27;;;;;;;;;;10203789;28;20045;-71
2023/08/12 05:48:34;;;;;;;10.32;9.52;;;;;;;;;;10204224;28;20065;-71
2023/08/12 05:53:30;;;;;;;11.95;10.73;;;;;;;;;;10200413;28;20427;-71
2023/08/12 05:58:27;;;;;;;11.80;10.90;;;;;;;;;;10198342;28;20073;-71
2023/08/12 06:03:23;;;;;;;13.32;11.85;;;;;;;;;;10201152;28;20115;-71
2023/08/12 06:08:20;;;;;;;13.52;12.40;;;;;;;;;;10238000;28;20132;-71
2023/08/12 06:13:16;;;;;;;12.98;11.90;;;;;;;;;;10209411;28;20046;-71
2023/08/12 06:18:12;;;;;;;14.27;13.07;;;;;;;;;;10232454;28;20108;-71
2023/08/12 06:23:09;;;;;;;13.43;12.32;;;;;;;;;;10198519;28;20050;-71
2023/08/12 06:28:05;;;;;;;13.75;12.57;;;;;;;;;;10229178;28;20060;-71
2023/08/12 06:33:01;;;;;;;14.38;13.18;;;;;;;;;;10197335;28;20100;-71
2023/08/12 06:37:58;;;;;;;15.05;13.85;;;;;;;;;;10196860;28;20064;-71
2023/08/12 06:42:54;;;;;;;15.50;14.13;;;;;;;;;;10197084;28;20758;-71
2023/08/12 06:47:50;;;;;;;14.98;13.88;;;;;;;;;;10210356;28;20046;-71
2023/08/12 06:52:47;;;;;;;17.02;15.43;;;;;;;;;;10196555;28;20137;-71
2023/08/12 07:02:54;;;;;;;16.77;15.38;;;;;;;;;;10436530;23;20052;-71
2023/08/12 07:13:22;;;;;;;18.45;16.63;;;;;;;;;;10331669;22;20072;-71
2023/08/12 07:18:18;;;;;;;17.77;16.07;;;;;;;;;;10193213;28;20735;-71
2023/08/12 07:23:14;;;;;;;18.80;17.10;;;;;;;;;;10237248;28;20064;-71
2023/08/12 07:28:11;;;;;;;18.02;16.63;;;;;;;;;;10265202;28;20053;-71
2023/08/12 07:33:07;;;;;;;19.33;17.65;;;;;;;;;;10196539;28;20046;-71
2023/08/12 07:38:04;;;;;;;19.85;18.15;;;;;;;;;;10243451;28;20129;-71
2023/08/12 07:43:00;;;;;;;20.45;18.50;;;;;;;;;;10194985;28;20058;-71
2023/08/12 07:47:56;;;;;;;20.75;19.13;;;;;;;;;;10218128;28;20046;-71
2023/08/12 07:52:53;;;;;;;19.88;18.08;;;;;;;;;;10194716;28;20042;-71
2023/08/12 08:02:54;;;;;;;19.50;17.90;;;;;;;;;;10238287;23;20765;-72
2023/08/12 08:07:51;;;;;;;18.73;17.33;;;;;;;;;;10314295;28;20510;-71
2023/08/12 08:12:47;;;;;;;21.10;19.17;;;;;;;;;;10291008;28;20056;-71
2023/08/12 08:17:43;;;;;;;19.55;17.88;;;;;;;;;;10312562;28;20415;-72
2023/08/12 08:22:40;;;;;;;19.35;17.70;;;;;;;;;;10286369;28;20094;-71
2023/08/12 08:27:36;;;;;;;19.90;18.30;;;;;;;;;;10309448;28;20048;-71
2023/08/12 08:32:33;;;;;;;18.25;16.85;;;;;;;;;;10274670;28;20049;-71
2023/08/12 08:37:29;;;;;;;20.52;18.50;;;;;;;;;;10294238;28;20473;-72
2023/08/12 08:42:25;;;;;;;18.92;17.17;;;;;;;;;;10274595;28;20052;-71
2023/08/12 08:47:26;;;;;;;18.70;17.05;;;;;;;;;;10280328;28;20049;-72
2023/08/12 08:52:23;;;;;;;19.08;17.27;;;;;;;;;;10273920;28;20569;-71
2023/08/12 08:57:19;;;;;;;17.40;15.80;;;;;;;;;;10308791;28;20049;-72
2023/08/12 09:02:23;;;;;;;17.90;16.13;;;;;;;;;;10300341;28;20507;-72
2023/08/12 09:07:20;;;;;;;17.67;15.98;;;;;;;;;;10313211;28;20041;-72
2023/08/12 09:12:16;;;;;;;18.85;17.15;;;;;;;;;;10295300;28;20045;-72
2023/08/12 09:17:14;;;;;;;17.15;15.65;;;;;;;;;;10315430;28;20045;-72
2023/08/12 09:22:10;;;;;;;18.92;16.85;;;;;;;;;;10288229;28;20415;-72
2023/08/12 09:27:07;;;;;;;18.08;16.42;;;;;;;;;;10305142;28;20067;-72
2023/08/12 09:32:13;;;;;;;17.80;16.20;;;;;;;;;;10280474;28;20084;-71
2023/08/12 09:37:11;;;;;;;18.58;16.77;;;;;;;;;;10303694;28;20106;-72
2023/08/12 09:42:07;;;;;;;16.23;14.82;;;;;;;;;;10279681;28;20053;-72
2023/08/12 09:47:05;;;;;;;16.55;14.55;;;;;;;;;;10300954;28;20099;-72
2023/08/12 09:52:03;;;;;;;17.10;15.48;;;;;;;;;;10279954;28;20052;-72
2023/08/12 09:57:00;;;;;;;14.15;12.88;;;;;;;;;;10285079;28;20049;-72
2023/08/12 10:01:56;;;;;;;15.18;13.77;;;;;;;;;;10332158;22;20048;-72
2023/08/12 10:06:53;;;;;;;14.27;13.07;;;;;;;;;;10244646;28;20057;-72
2023/08/12 10:11:52;;;;;;;15.82;14.43;;;;;;;;;;10237752;28;20055;-72
2023/08/12 10:16:49;;;;;;;21.13;16.85;;;;;;;;;;10269085;28;20049;-72
2023/08/12 10:21:46;;;;;;;17.88;16.08;;;;;;;;;;10249414;28;20474;-72
2023/08/12 10:26:42;;;;;;;16.35;14.88;;;;;;;;;;10268123;28;20056;-71
2023/08/12 10:32:00;;;;;;;16.33;14.73;;;;;;;;;;10295769;23;20111;-72
2023/08/12 10:36:57;;;;;;;15.13;13.63;;;;;;;;;;10270646;28;20103;-72
2023/08/12 10:41:59;;;;;;;15.18;13.65;;;;;;;;;;10237075;28;20140;-71
2023/08/12 10:46:57;;;;;;;12.80;11.60;;;;;;;;;;10254791;28;20056;-71
2023/08/12 10:51:54;;;;;;;14.13;12.93;;;;;;;;;;10324017;23;20122;-72
2023/08/12 10:57:11;;;;;;;14.60;13.30;;;;;;;;;;10280386;28;20079;-71
2023/08/12 11:02:12;;;;;;;13.30;12.10;;;;;;;;;;10277176;28;20128;-71
2023/08/12 11:07:16;;;;;;;14.23;12.90;;;;;;;;;;10310505;28;20460;-71
2023/08/12 11:12:17;;;;;;;13.05;11.75;;;;;;;;;;10297802;28;20095;-72
2023/08/12 11:17:14;;;;;;;14.93;12.40;;;;;;;;;;10310491;28;20445;-72
2023/08/12 11:22:12;;;;;;;12.35;11.10;;;;;;;;;;10281796;28;20057;-71
2023/08/12 11:27:09;;;;;;;12.07;10.98;;;;;;;;;;10309173;28;20395;-72
2023/08/12 11:32:05;;;;;;;12.30;11.13;;;;;;;;;;10315211;28;20052;-71
2023/08/12 11:37:03;;;;;;;12.48;11.38;;;;;;;;;;10296068;28;20083;-71
2023/08/12 11:42:02;;;;;;;12.65;11.45;;;;;;;;;;10275567;28;20056;-72
2023/08/12 11:46:58;;;;;;;12.52;11.32;;;;;;;;;;10308091;28;20053;-72
2023/08/12 11:51:54;;;;;;;13.45;12.25;;;;;;;;;;10307027;28;20056;-72
2023/08/12 11:56:51;;;;;;;14.25;13.05;;;;;;;;;;10305765;28;20720;-70
2023/08/12 12:01:50;;;;;;;14.13;12.80;;;;;;;;;;10292617;28;20056;-70
2023/08/12 12:06:49;;;;;;;14.80;13.50;;;;;;;;;;10305313;28;20478;-71
2023/08/12 12:11:46;;;;;;;15.75;14.35;;;;;;;;;;10280654;28;20136;-71
2023/08/12 12:16:43;;;;;;;16.23;14.55;;;;;;;;;;10299840;28;20114;-71
2023/08/12 12:21:40;;;;;;;15.95;14.55;;;;;;;;;;10285074;22;20095;-71
2023/08/12 12:26:37;;;;;;;16.00;14.65;;;;;;;;;;10245202;28;20045;-71
2023/08/12 12:31:34;;;;;;;16.75;15.07;;;;;;;;;;10234334;28;20053;-71
2023/08/12 12:36:31;;;;;;;17.90;16.30;;;;;;;;;;10236079;28;20585;-71
2023/08/12 12:41:28;;;;;;;16.73;15.32;;;;;;;;;;10233707;28;20507;-71
2023/08/12 12:46:24;;;;;;;16.25;14.90;;;;;;;;;;10265513;28;20056;-71
2023/08/12 12:51:21;;;;;;;16.02;14.68;;;;;;;;;;10277430;28;20045;-71
2023/08/12 12:56:17;;;;;;;15.93;14.32;;;;;;;;;;10280748;28;20053;-71
2023/08/12 13:01:14;;;;;;;16.92;15.52;;;;;;;;;;10273134;28;20049;-71
2023/08/12 13:06:10;;;;;;;16.35;15.05;;;;;;;;;;10266579;28;20525;-71
2023/08/12 13:11:06;;;;;;;17.63;16.25;;;;;;;;;;10269859;28;20128;-71
2023/08/12 13:16:03;;;;;;;18.00;16.42;;;;;;;;;;10265286;28;20053;-71
2023/08/12 13:26:54;;;;;;;17.88;16.27;;;;;;;;;;10280773;28;20539;-70
2023/08/12 13:31:51;;;;;;;19.27;17.48;;;;;;;;;;10240131;28;20530;-70
2023/08/12 13:36:47;;;;;;;19.13;17.35;;;;;;;;;;10277835;28;20584;-71
2023/08/12 13:41:43;;;;;;;19.13;17.60;;;;;;;;;;10277689;28;20088;-71
2023/08/12 13:46:40;;;;;;;17.48;16.05;;;;;;;;;;10285378;28;20056;-71
2023/08/12 13:51:36;;;;;;;18.15;16.65;;;;;;;;;;10279869;28;20049;-71
2023/08/12 13:56:32;;;;;;;17.63;16.10;;;;;;;;;;10251933;28;20557;-71
2023/08/12 14:01:29;;;;;;;17.33;15.85;;;;;;;;;;10239062;28;20057;-71
2023/08/12 14:06:25;;;;;;;17.92;16.35;;;;;;;;;;10265981;28;20110;-71
2023/08/12 14:11:22;;;;;;;16.45;15.02;;;;;;;;;;10279062;28;20049;-71
2023/08/12 14:16:18;;;;;;;13.57;12.38;;;;;;;;;;10305412;28;20076;-71
2023/08/12 14:21:14;;;;;;;13.98;12.77;;;;;;;;;;10319197;28;20049;-71
2023/08/12 14:26:11;;;;;;;14.80;13.48;;;;;;;;;;10290588;28;20048;-71
2023/08/12 14:31:07;;;;;;;13.95;12.80;;;;;;;;;;10285580;28;20463;-70
2023/08/12 14:36:04;;;;;;;14.20;13.05;;;;;;;;;;10236850;28;20080;-70
2023/08/12 14:41:00;;;;;;;15.50;14.30;;;;;;;;;;10238260;28;20061;-71
2023/08/12 14:45:56;;;;;;;16.70;15.20;;;;;;;;;;10291748;28;20419;-71
2023/08/12 14:50:53;;;;;;;18.27;16.67;;;;;;;;;;10277502;28;20048;-70
2023/08/12 14:55:49;;;;;;;18.27;16.77;;;;;;;;;;10257716;28;20097;-70
2023/08/12 15:00:49;;;;;;;19.15;17.55;;;;;;;;;;10236162;28;20072;-70
2023/08/12 15:05:45;;;;;;;21.85;19.95;;;;;;;;;;10281726;28;20576;-71
2023/08/12 15:10:41;;;;;;;21.58;19.75;;;;;;;;;;10300034;22;20040;-70
2023/08/12 15:15:38;;;;;;;21.58;19.48;;;;;;;;;;10297188;28;20040;-70
2023/08/12 15:20:34;;;;;;;22.27;19.90;;;;;;;;;;10298291;28;20049;-70
2023/08/12 15:25:31;;;;;;;22.80;20.90;;;;;;;;;;10296282;28;20502;-70
2023/08/12 15:30:31;;;;;;;23.83;21.63;;;;;;;;;;10344875;22;20127;-70
2023/08/12 15:35:28;;;;;;;23.17;21.17;;;;;;;;;;10234955;28;20081;-70
2023/08/12 15:40:24;;;;;;;21.42;19.40;;;;;;;;;;10209778;28;20503;-70
2023/08/12 15:45:21;;;;;;;21.60;19.60;;;;;;;;;;10232092;28;20140;-70
2023/08/12 15:50:17;;;;;;;20.00;18.20;;;;;;;;;;10220371;28;20049;-70
2023/08/12 15:55:14;;;;;;;20.60;18.70;;;;;;;;;;10230369;28;20045;-70
2023/08/12 16:00:10;;;;;;;19.17;17.58;;;;;;;;;;10218398;28;20134;-70
2023/08/12 16:05:07;;;;;;;18.45;16.85;;;;;;;;;;10242977;28;20056;-70
2023/08/12 16:10:04;;;;;;;18.25;16.55;;;;;;;;;;10243831;28;20526;-70
2023/08/12 16:15:00;;;;;;;17.98;16.27;;;;;;;;;;10251049;28;20048;-70
2023/08/12 16:19:57;;;;;;;16.48;15.23;;;;;;;;;;10200171;28;20145;-71
2023/08/12 16:24:53;;;;;;;16.73;15.30;;;;;;;;;;10214897;28;20157;-71
2023/08/12 16:29:49;;;;;;;16.50;15.18;;;;;;;;;;10201486;28;20045;-70
2023/08/12 16:34:46;;;;;;;16.77;15.38;;;;;;;;;;10229574;28;20103;-70
2023/08/12 16:39:42;;;;;;;11.30;10.27;;;;;;;;;;10282032;28;20057;-70
2023/08/12 16:44:38;;;;;;;9.38;8.57;;;;;;;;;;10252390;28;20438;-70
2023/08/12 16:49:35;;;;;;;8.30;7.70;;;;;;;;;;10281601;28;20049;-70
2023/08/12 16:54:31;;;;;;;9.95;7.70;;;;;;;;;;10249208;28;20045;-70
2023/08/12 16:59:28;;;;;;;8.00;7.40;;;;;;;;;;10280725;28;20418;-70
2023/08/12 17:04:24;;;;;;;8.55;7.85;;;;;;;;;;10255406;28;20049;-70
2023/08/12 17:09:20;;;;;;;8.10;7.50;;;;;;;;;;10280709;28;20478;-70
2023/08/12 17:14:19;;;;;;;8.52;7.93;;;;;;;;;;10226716;28;20055;-70
2023/08/12 17:19:15;;;;;;;7.53;6.93;;;;;;;;;;10280510;28;20510;-70
2023/08/12 17:24:11;;;;;;;7.85;7.25;;;;;;;;;;10222788;28;20053;-70
2023/08/12 17:29:08;;;;;;;7.53;6.93;;;;;;;;;;10298125;23;20503;-70
2023/08/12 17:34:04;;;;;;;7.50;7.00;;;;;;;;;;10280133;28;20063;-71
2023/08/12 17:39:00;;;;;;;7.95;7.30;;;;;;;;;;10264693;28;20049;-70
2023/08/12 17:43:57;;;;;;;7.90;7.18;;;;;;;;;;10254369;28;20056;-70
2023/08/12 17:48:53;;;;;;;8.55;7.95;;;;;;;;;;10290442;28;20691;-70
2023/08/12 17:53:50;;;;;;;9.15;8.35;;;;;;;;;;10251860;28;20053;-70
2023/08/12 17:58:47;;;;;;;9.43;8.63;;;;;;;;;;10281435;22;20136;-70
2023/08/12 18:03:43;;;;;;;9.38;8.57;;;;;;;;;;10258941;28;20053;-70
2023/08/12 18:08:40;;;;;;;10.27;9.32;;;;;;;;;;10246310;28;20053;-70
2023/08/12 18:13:36;;;;;;;10.38;9.57;;;;;;;;;;10241886;28;20052;-69
2023/08/12 18:18:32;;;;;;;10.68;9.85;;;;;;;;;;10278641;28;20041;-70
2023/08/12 18:23:29;;;;;;;11.07;10.15;;;;;;;;;;10271051;28;20033;-70
2023/08/12 18:28:25;;;;;;;10.20;9.50;;;;;;;;;;10277616;28;20072;-70
2023/08/12 18:33:21;;;;;;;10.68;9.82;;;;;;;;;;10257539;28;20072;-69
2023/08/12 18:38:18;;;;;;;10.63;9.77;;;;;;;;;;10276722;28;20110;-70
2023/08/12 18:43:14;;;;;;;10.35;9.50;;;;;;;;;;10255536;28;20049;-69
2023/08/12 18:48:10;;;;;;;9.60;8.90;;;;;;;;;;10277196;28;20049;-69
2023/08/12 18:53:07;;;;;;;11.32;10.23;;;;;;;;;;10254677;28;20639;-69
2023/08/12 18:58:03;;;;;;;11.15;10.25;;;;;;;;;;10276940;28;20049;-70
2023/08/12 19:02:59;;;;;;;12.07;10.88;;;;;;;;;;10275750;28;20061;-69
2023/08/12 19:07:56;;;;;;;11.80;10.70;;;;;;;;;;10275694;28;20079;-69
2023/08/12 19:12:52;;;;;;;12.55;11.45;;;;;;;;;;10276497;28;20550;-70
2023/08/12 19:17:49;;;;;;;12.60;11.00;;;;;;;;;;10260960;28;20062;-70
2023/08/12 19:22:46;;;;;;;12.48;10.18;;;;;;;;;;10235931;28;20115;-70
2023/08/12 19:27:42;;;;;;;11.30;10.30;;;;;;;;;;10257554;28;20060;-69
2023/08/12 19:32:46;;;;;;;12.60;10.60;;;;;;;;;;10235316;28;20111;-70
2023/08/12 19:37:43;;;;;;;12.25;11.02;;;;;;;;;;10255529;28;20111;-70
2023/08/12 19:42:39;;;;;;;11.88;10.68;;;;;;;;;;10234891;28;20057;-70
2023/08/12 19:47:38;;;;;;;11.40;10.27;;;;;;;;;;10234832;28;20111;-70
2023/08/12 19:52:35;;;;;;;11.95;10.75;;;;;;;;;;10235113;28;20144;-69
2023/08/12 19:57:32;;;;;;;13.48;11.63;;;;;;;;;;10270426;28;20064;-69
2023/08/12 20:02:28;;;;;;;11.50;10.55;;;;;;;;;;10258903;28;20062;-69
2023/08/12 20:07:35;;;;;;;12.27;11.10;;;;;;;;;;10271027;28;20061;-69
2023/08/12 20:12:31;;;;;;;13.02;10.57;;;;;;;;;;10257065;28;20054;-69
2023/08/12 20:17:27;;;;;;;11.65;10.48;;;;;;;;;;10270095;28;20049;-70
2023/08/12 20:22:24;;;;;;;12.57;11.27;;;;;;;;;;10243225;28;20053;-70
2023/08/12 20:27:20;;;;;;;12.02;10.65;;;;;;;;;;10269099;28;20419;-70
2023/08/12 20:32:16;;;;;;;14.65;9.75;;;;;;;;;;10286504;22;20550;-69
2023/08/12 20:37:13;;;;;;;14.80;10.82;;;;;;;;;;10273999;28;20048;-70
2023/08/12 20:42:09;;;;;;;12.07;10.77;;;;;;;;;;10274096;28;20055;-69
2023/08/12 20:47:06;;;;;;;12.52;10.18;;;;;;;;;;10272730;28;20049;-69
2023/08/12 20:52:02;;;;;;;13.50;10.93;;;;;;;;;;10274231;28;20059;-69
2023/08/12 20:57:01;;;;;;;14.20;10.07;;;;;;;;;;10240908;28;20569;-69
2023/08/12 21:01:58;;;;;;;14.40;11.45;;;;;;;;;;10232953;28;20053;-69
2023/08/12 21:06:58;;;;;;;13.68;10.50;;;;;;;;;;10268826;28;20176;-69
2023/08/12 21:11:54;;;;;;;11.32;10.23;;;;;;;;;;10271227;28;20060;-70
2023/08/12 21:16:51;;;;;;;14.55;10.27;;;;;;;;;;10271617;28;20136;-70
2023/08/12 21:21:47;;;;;;;11.95;10.75;;;;;;;;;;10254243;28;20050;-70
2023/08/12 21:26:43;;;;;;;18.65;12.60;;;;;;;;;;10279581;28;20103;-69
2023/08/12 21:31:40;;;;;;;14.05;10.80;;;;;;;;;;10278993;28;20062;-70
2023/08/12 21:36:36;;;;;;;12.98;11.38;;;;;;;;;;10280404;28;20065;-70
2023/08/12 21:41:32;;;;;;;19.80;13.02;;;;;;;;;;10278496;28;20068;-71
2023/08/12 21:46:29;;;;;;;15.20;12.07;;;;;;;;;;10280153;28;20728;-70
2023/08/12 21:51:25;;;;;;;13.60;12.25;;;;;;;;;;10426319;22;20437;-70
2023/08/12 21:56:21;;;;;;;13.48;12.07;;;;;;;;;;10252567;28;20670;-70
2023/08/12 22:01:18;;;;;;;13.52;12.07;;;;;;;;;;10239173;28;20091;-69
2023/08/12 22:06:15;;;;;;;13.90;12.45;;;;;;;;;;10255885;28;20041;-70
2023/08/12 22:11:12;;;;;;;13.88;12.45;;;;;;;;;;10238349;28;20538;-70
2023/08/12 22:16:08;;;;;;;15.00;13.40;;;;;;;;;;10250058;28;20050;-70
2023/08/12 22:21:14;;;;;;;13.57;12.15;;;;;;;;;;10423081;23;20048;-70
2023/08/12 22:26:10;;;;;;;14.52;11.90;;;;;;;;;;10312159;28;20049;-70
2023/08/12 22:31:06;;;;;;;14.82;13.52;;;;;;;;;;10277889;28;20049;-70
2023/08/12 22:36:03;;;;;;;14.20;12.90;;;;;;;;;;10296285;28;20677;-70
2023/08/12 22:40:59;;;;;;;14.15;12.95;;;;;;;;;;10311599;28;20143;-70
2023/08/12 22:45:55;;;;;;;15.15;13.55;;;;;;;;;;10298735;28;20049;-70
2023/08/12 22:50:52;;;;;;;14.23;12.93;;;;;;;;;;10297098;28;20052;-70
2023/08/12 22:55:49;;;;;;;14.07;12.70;;;;;;;;;;10289855;28;20525;-69
2023/08/12 23:00:45;;;;;;;14.23;12.93;;;;;;;;;;10305536;28;20165;-69
2023/08/12 23:05:42;;;;;;;13.90;12.07;;;;;;;;;;10297431;28;20746;-68
2023/08/12 23:10:38;;;;;;;16.30;13.38;;;;;;;;;;10295659;28;20102;-68
2023/08/12 23:15:35;;;;;;;15.30;13.88;;;;;;;;;;10298674;28;20126;-66
2023/08/12 23:20:32;;;;;;;14.40;12.85;;;;;;;;;;10291919;28;20052;-66
2023/08/12 23:25:28;;;;;;;14.80;13.20;;;;;;;;;;10289019;28;20052;-67
2023/08/12 23:30:25;;;;;;;18.33;13.77;;;;;;;;;;10303887;28;20098;-66
2023/08/12 23:35:21;;;;;;;14.90;13.38;;;;;;;;;;10304600;28;20239;-66
2023/08/12 23:40:17;;;;;;;16.60;14.70;;;;;;;;;;10314030;28;20110;-66
2023/08/12 23:45:14;;;;;;;14.30;12.95;;;;;;;;;;10300825;28;20090;-66
2023/08/12 23:50:11;;;;;;;15.90;14.27;;;;;;;;;;10309899;28;20090;-66
2023/08/12 23:55:08;;;;;;;15.82;14.15;;;;;;;;;;10301774;28;20506;-66
